This is the latest recevied weather packets stored in our database for station/object SM2FXT-13. If no packets are shown the sender has not sent any weather packets the latest 10 day(s).
| Time | Temp. | Humidity | Pressure | Rain* | Wind** | Luminosity | Snow |
|---|---|---|---|---|---|---|---|
| 1777668602 | 7.78° C | 73% | 1009.9 hPa | 0 mm | - | - | - |
| 1777663203 | 12.22° C | 59% | 1010.8 hPa | 0 mm | - | - | - |
| 1777661402 | 12.22° C | 58% | 1011.3 hPa | 0 mm | - | - | - |
| 1777660803 | 12.78° C | 58% | 1011.2 hPa | 0 mm | - | - | - |
| 1777657802 | 14.44° C | 51% | 1011.6 hPa | 0 mm | - | - | - |
| 1777654803 | 15° C | 48% | 1011.8 hPa | 0 mm | - | - | - |
| 1777654203 | 15.56° C | 48% | 1011.9 hPa | 0 mm | - | - | - |
| 1777650002 | 16.11° C | 50% | 1012.6 hPa | 0 mm | - | - | - |
| 1777647603 | 16.67° C | 49% | 1012.5 hPa | 0 mm | - | - | - |
| 1777646403 | 16.67° C | 49% | 1012.4 hPa | 0 mm | - | - | - |
| 1777645203 | 16.67° C | 49% | 1012.4 hPa | 0 mm | - | - | - |
| 1777642803 | 17.22° C | 49% | 1012.6 hPa | 0 mm | - | - | - |
| 1777639802 | 18.33° C | 44% | 1012.8 hPa | 0 mm | - | - | - |
| 1777637403 | 18.33° C | 45% | 1013 hPa | 0 mm | - | - | - |
| 1777633203 | 17.78° C | 43% | 1013.1 hPa | 0 mm | - | - | - |
| 1777632603 | 18.33° C | 44% | 1013.1 hPa | 0 mm | - | - | - |
| 1777632003 | 18.33° C | 44% | 1013.2 hPa | 0 mm | - | - | - |
| 1777627203 | 18.33° C | 40% | 1013.6 hPa | 0 mm | - | - | - |
| 1777621203 | 16.67° C | 46% | 1014.5 hPa | 0 mm | - | - | - |
| 1777618204 | 15° C | 55% | 1015 hPa | 0 mm | - | - | - |
| 1777615803 | 14.44° C | 58% | 1015.3 hPa | 0 mm | - | - | - |
| 1777611003 | 9.44° C | 78% | 1015.4 hPa | 0 mm | - | - | - |
| 1777603804 | 6.11° C | 88% | 1016.8 hPa | 0 mm | - | - | - |
| 1777597804 | 7.78° C | 83% | 1017.3 hPa | 0 mm | - | - | - |
| 1777596603 | 7.78° C | 84% | 1017.5 hPa | 0 mm | - | - | - |
* Rain latest hour (hover to see other rain measurements)
** Current wind speed in m/s (hover to see current wind gust speed)